createdAt,value
2019-03-13T00:00:23.796Z,2.00
2019-03-13T00:02:52.400Z,1.80
2019-03-13T00:05:20.952Z,2.53
2019-03-13T00:07:49.448Z,1.37
2019-03-13T00:10:17.971Z,1.80
2019-03-13T00:12:46.646Z,2.00
2019-03-13T00:15:15.819Z,2.50
2019-03-13T00:17:44.336Z,1.90
2019-03-13T00:20:13.437Z,2.07
2019-03-13T00:22:41.876Z,2.20
2019-03-13T00:25:10.508Z,1.47
2019-03-13T00:27:39.017Z,1.53
2019-03-13T00:30:09.765Z,2.13
2019-03-13T00:32:38.284Z,1.50
2019-03-13T00:35:08.689Z,1.80
2019-03-13T00:37:37.176Z,2.40
2019-03-13T00:40:09.870Z,2.80
2019-03-13T00:42:38.306Z,2.40
2019-03-13T00:45:12.973Z,1.93
2019-03-13T00:47:41.412Z,2.40
2019-03-13T00:50:21.814Z,2.43
2019-03-13T00:52:50.332Z,2.77
2019-03-13T00:55:18.754Z,2.80
2019-03-13T00:57:48.094Z,3.33
2019-03-13T01:00:18.396Z,3.30
2019-03-13T01:02:48.492Z,3.87
2019-03-13T01:05:21.638Z,3.57
2019-03-13T01:07:50.070Z,3.10
2019-03-13T01:10:18.596Z,2.80
2019-03-13T01:12:47.024Z,3.07
2019-03-13T01:15:15.589Z,3.77
2019-03-13T01:17:44.051Z,3.03
2019-03-13T01:20:12.614Z,3.10
2019-03-13T01:22:41.069Z,3.90
2019-03-13T01:25:10.636Z,4.30
2019-03-13T01:27:39.100Z,3.97
2019-03-13T01:30:10.958Z,3.53
2019-03-13T01:32:41.261Z,4.50
2019-03-13T01:35:11.357Z,3.27
2019-03-13T01:37:39.789Z,4.87
2019-03-13T01:40:10.595Z,3.83
2019-03-13T01:42:39.104Z,5.00
2019-03-13T01:45:09.470Z,3.33
2019-03-13T01:47:37.993Z,3.40
2019-03-13T01:50:08.998Z,3.87
2019-03-13T01:52:37.457Z,4.13
2019-03-13T01:55:07.723Z,3.07
2019-03-13T01:57:36.165Z,4.43
2019-03-13T02:00:07.973Z,3.43
2019-03-13T02:02:36.446Z,4.07
2019-03-13T02:05:06.352Z,4.13
2019-03-13T02:07:34.770Z,3.93
2019-03-13T02:10:03.764Z,4.20
2019-03-13T02:12:32.209Z,4.17
2019-03-13T02:15:00.670Z,5.40
2019-03-13T02:17:29.117Z,5.03
2019-03-13T02:19:57.566Z,5.07
2019-03-13T02:22:26.022Z,4.30
2019-03-13T02:24:54.463Z,5.50
2019-03-13T02:27:22.979Z,5.13
2019-03-13T02:29:51.481Z,5.20
2019-03-13T02:32:19.926Z,4.27
2019-03-13T02:34:48.390Z,4.83
2019-03-13T02:37:16.809Z,3.87
2019-03-13T02:39:45.253Z,5.53
2019-03-13T02:42:13.692Z,4.60
2019-03-13T02:44:42.153Z,6.43
2019-03-13T02:47:10.572Z,4.90
2019-03-13T02:49:39.027Z,3.67
2019-03-13T02:52:07.472Z,4.87
2019-03-13T02:54:35.943Z,4.27
2019-03-13T02:57:04.408Z,4.57
2019-03-13T02:59:32.833Z,5.90
2019-03-13T03:02:08.406Z,6.60
2019-03-13T03:04:36.875Z,6.00
2019-03-13T03:07:05.306Z,7.63
2019-03-13T03:09:33.769Z,5.93
2019-03-13T03:12:02.206Z,5.63
2019-03-13T03:14:30.652Z,7.00
2019-03-13T03:16:59.122Z,5.17
2019-03-13T03:19:27.567Z,5.87
2019-03-13T03:21:56.036Z,5.03
2019-03-13T03:24:24.501Z,4.60
2019-03-13T03:26:52.933Z,6.53
2019-03-13T03:29:21.358Z,5.80
2019-03-13T03:31:49.815Z,5.03
2019-03-13T03:34:18.320Z,7.57
2019-03-13T03:36:46.759Z,5.93
2019-03-13T03:39:15.283Z,6.67
2019-03-13T03:41:43.862Z,7.33
2019-03-13T03:44:12.477Z,6.17
2019-03-13T03:46:40.909Z,5.10
2019-03-13T03:49:09.352Z,6.47
2019-03-13T03:51:37.806Z,6.23
2019-03-13T03:54:06.333Z,5.10
2019-03-13T03:56:34.795Z,3.77
2019-03-13T03:59:03.377Z,4.13
2019-03-13T04:01:31.982Z,3.20
2019-03-13T04:04:00.506Z,3.07
2019-03-13T04:06:29.123Z,4.43
2019-03-13T04:08:57.550Z,3.20
2019-03-13T04:11:26.182Z,3.40
2019-03-13T04:13:54.636Z,3.73
2019-03-13T04:16:23.073Z,4.17
2019-03-13T04:18:51.550Z,3.07
2019-03-13T04:21:20.062Z,2.93
2019-03-13T04:23:48.563Z,2.87
2019-03-13T04:26:17.153Z,3.07
2019-03-13T04:28:45.674Z,3.20
2019-03-13T04:31:14.135Z,2.57
2019-03-13T04:33:42.560Z,3.23
2019-03-13T04:36:11.038Z,3.50
2019-03-13T04:38:39.497Z,2.80
2019-03-13T04:41:07.925Z,3.30
2019-03-13T04:43:36.385Z,3.07
2019-03-13T04:46:04.896Z,3.13
2019-03-13T04:48:33.341Z,2.87
2019-03-13T04:51:01.774Z,3.03
2019-03-13T04:53:30.242Z,3.07
2019-03-13T04:55:58.664Z,2.87
2019-03-13T04:58:27.121Z,3.87
2019-03-13T05:00:55.553Z,3.43
2019-03-13T05:03:24.000Z,3.23
2019-03-13T05:05:52.593Z,2.67
2019-03-13T05:08:44.977Z,3.00
2019-03-13T05:11:06.125Z,2.27
2019-03-13T05:13:34.596Z,2.93
2019-03-13T05:16:03.045Z,2.53
2019-03-13T05:18:31.474Z,2.80
2019-03-13T05:20:59.951Z,4.00
2019-03-13T05:23:28.409Z,3.63
2019-03-13T05:25:56.869Z,3.80
2019-03-13T05:28:25.298Z,3.53
2019-03-13T05:30:53.758Z,2.57
2019-03-13T05:33:22.182Z,2.37
2019-03-13T05:35:50.636Z,2.87
2019-03-13T05:38:19.074Z,3.03
2019-03-13T05:40:47.536Z,3.00
2019-03-13T05:43:16.040Z,3.73
2019-03-13T05:45:44.502Z,4.60
2019-03-13T05:48:12.993Z,2.90
2019-03-13T05:50:41.442Z,2.80
2019-03-13T05:53:09.895Z,3.23
2019-03-13T05:55:38.323Z,3.07
2019-03-13T05:58:06.783Z,3.47
2019-03-13T06:00:35.243Z,2.87
2019-03-13T06:03:03.703Z,3.03
2019-03-13T06:05:32.132Z,3.17
2019-03-13T06:08:00.553Z,2.20
2019-03-13T06:10:29.078Z,4.27
2019-03-13T06:12:57.657Z,2.57
2019-03-13T06:15:26.100Z,2.60
2019-03-13T06:17:54.533Z,3.40
2019-03-13T06:20:23.052Z,2.83
2019-03-13T06:22:51.484Z,2.67
2019-03-13T06:25:19.996Z,2.43
2019-03-13T06:27:48.453Z,3.47
2019-03-13T06:30:20.662Z,2.67
2019-03-13T06:32:49.248Z,2.83
2019-03-13T06:35:17.811Z,1.80
2019-03-13T06:37:46.256Z,2.10
2019-03-13T06:40:16.431Z,2.83
2019-03-13T06:42:44.857Z,2.47
2019-03-13T06:45:14.790Z,2.80
2019-03-13T06:47:43.284Z,3.13
2019-03-13T06:50:17.112Z,4.30
2019-03-13T06:52:45.528Z,3.00
2019-03-13T06:55:15.390Z,2.43
2019-03-13T06:57:43.912Z,3.10
2019-03-13T07:00:31.953Z,2.93
2019-03-13T07:03:20.097Z,3.77
2019-03-13T07:05:50.195Z,3.03
2019-03-13T07:08:26.401Z,3.10
2019-03-13T07:11:13.037Z,3.43
2019-03-13T07:13:43.173Z,3.53
2019-03-13T07:16:22.288Z,3.37
2019-03-13T07:18:52.383Z,2.83
2019-03-13T07:21:38.952Z,3.03
2019-03-13T07:24:25.737Z,2.53
2019-03-13T07:27:01.785Z,3.30
2019-03-13T07:29:44.184Z,2.17
2019-03-13T07:32:17.181Z,2.93
2019-03-13T07:34:47.251Z,2.93
2019-03-13T07:37:17.332Z,3.03
2019-03-13T07:39:56.377Z,3.03
2019-03-13T07:42:26.461Z,2.77
2019-03-13T07:44:56.561Z,2.70
2019-03-13T07:47:38.710Z,3.23
2019-03-13T07:50:19.813Z,3.20
2019-03-13T07:52:55.844Z,4.17
2019-03-13T07:55:26.612Z,3.07
2019-03-13T07:58:02.447Z,2.80
2019-03-13T08:00:41.755Z,4.17
2019-03-13T08:03:11.836Z,3.93
2019-03-13T08:05:41.909Z,2.83
2019-03-13T08:08:14.823Z,3.63
2019-03-13T08:10:44.887Z,3.03
2019-03-13T08:13:14.968Z,2.90
2019-03-13T08:15:45.061Z,3.10
2019-03-13T08:18:17.880Z,2.80
2019-03-13T08:20:47.976Z,3.10
2019-03-13T08:23:29.941Z,3.47
2019-03-13T08:26:02.980Z,3.77
2019-03-13T08:28:33.053Z,3.63
2019-03-13T08:31:03.153Z,4.00
2019-03-13T08:33:42.001Z,3.57
2019-03-13T08:36:14.750Z,3.33
2019-03-13T08:38:57.104Z,2.90
2019-03-13T08:41:33.101Z,3.50
2019-03-13T08:44:15.421Z,3.57
2019-03-13T08:46:45.521Z,3.60
2019-03-13T08:49:18.636Z,3.20
2019-03-13T08:51:48.737Z,3.27
2019-03-13T08:54:21.797Z,2.93
2019-03-13T08:56:51.870Z,3.43
2019-03-13T08:59:30.905Z,3.90
2019-03-13T09:02:01.071Z,3.03
2019-03-13T09:04:31.144Z,3.27
2019-03-13T09:07:04.081Z,3.13
2019-03-13T09:09:37.125Z,2.57
2019-03-13T09:12:22.189Z,3.03
2019-03-13T09:14:52.258Z,2.67
2019-03-13T09:17:37.851Z,3.07
2019-03-13T09:20:11.437Z,3.07
2019-03-13T09:22:44.316Z,2.10
2019-03-13T09:25:17.361Z,3.50
2019-03-13T09:28:02.292Z,2.60
2019-03-13T09:30:37.848Z,2.27
2019-03-13T09:33:24.167Z,3.37
2019-03-13T09:35:57.043Z,3.90
2019-03-13T09:38:38.336Z,3.07
2019-03-13T09:41:10.808Z,3.00
2019-03-13T09:43:52.836Z,2.87
2019-03-13T09:46:39.269Z,2.43
2019-03-13T09:49:18.648Z,3.53
2019-03-13T09:51:51.324Z,2.90
2019-03-13T09:54:37.667Z,3.00
2019-03-13T09:57:19.798Z,3.37
2019-03-13T09:59:49.918Z,3.10
2019-03-13T10:02:25.740Z,3.53
2019-03-13T10:04:55.830Z,2.03
2019-03-13T10:07:25.924Z,2.67
2019-03-13T10:09:56.020Z,2.50
2019-03-13T10:12:26.112Z,3.77
2019-03-13T10:15:05.442Z,2.70
2019-03-13T10:17:38.669Z,3.27
2019-03-13T10:20:11.178Z,3.17
2019-03-13T10:22:53.389Z,3.30
2019-03-13T10:25:29.150Z,2.67
2019-03-13T10:28:08.248Z,3.10
2019-03-13T10:30:54.676Z,2.93
2019-03-13T10:33:24.777Z,2.57
2019-03-13T10:35:57.434Z,3.70
2019-03-13T10:38:27.586Z,2.80
2019-03-13T10:40:57.800Z,2.90
2019-03-13T10:43:33.602Z,2.70
2019-03-13T10:46:19.033Z,2.83
2019-03-13T10:49:05.439Z,2.43
2019-03-13T10:51:47.761Z,4.43
2019-03-13T10:54:20.892Z,3.20
2019-03-13T10:57:07.220Z,3.43
2019-03-13T10:59:37.344Z,2.50
2019-03-13T11:02:23.960Z,3.37
2019-03-13T11:05:03.095Z,2.67
2019-03-13T11:07:33.159Z,3.50
2019-03-13T11:10:08.706Z,2.83
2019-03-13T11:12:44.498Z,2.40
2019-03-13T11:15:14.703Z,3.30
2019-03-13T11:18:01.481Z,3.17
2019-03-13T11:20:31.621Z,3.40
2019-03-13T11:23:13.704Z,2.73
2019-03-13T11:25:43.824Z,2.53
2019-03-13T11:28:22.637Z,2.83
2019-03-13T11:30:52.698Z,3.40
2019-03-13T11:33:37.665Z,2.43
2019-03-13T11:36:24.145Z,3.33
2019-03-13T11:38:57.017Z,3.27
2019-03-13T11:41:43.607Z,3.17
2019-03-13T11:44:13.701Z,2.97
2019-03-13T11:46:43.764Z,3.50
2019-03-13T11:49:13.861Z,3.57
2019-03-13T11:52:00.301Z,3.90
2019-03-13T11:54:36.459Z,3.07
2019-03-13T11:57:09.386Z,3.47
2019-03-13T11:59:48.752Z,2.90
2019-03-13T12:02:18.845Z,4.10
2019-03-13T12:05:05.141Z,3.57
2019-03-13T12:07:38.205Z,3.30
2019-03-13T12:10:11.184Z,3.37
2019-03-13T12:12:53.602Z,3.23
2019-03-13T12:15:23.683Z,3.70
2019-03-13T12:17:53.783Z,3.93
2019-03-13T12:20:35.865Z,3.17
2019-03-13T12:23:06.105Z,3.47
2019-03-13T12:25:38.765Z,3.87
2019-03-13T12:28:08.856Z,4.43
2019-03-13T12:30:42.170Z,4.13
2019-03-13T12:33:12.384Z,2.30
2019-03-13T12:35:42.556Z,5.67
2019-03-13T12:38:15.774Z,3.70
2019-03-13T12:40:54.874Z,4.47
2019-03-13T12:43:40.001Z,3.67
2019-03-13T12:46:15.953Z,3.83
2019-03-13T12:49:02.120Z,3.47
2019-03-13T12:51:35.001Z,4.40
2019-03-13T12:54:21.849Z,3.27
2019-03-13T12:56:51.930Z,3.90
2019-03-13T12:59:27.783Z,3.07
2019-03-13T13:02:14.172Z,4.03
2019-03-13T13:04:50.446Z,5.23
2019-03-13T13:07:20.626Z,3.27
2019-03-13T13:09:56.180Z,2.90
2019-03-13T13:12:42.552Z,3.83
2019-03-13T13:15:13.097Z,3.40
2019-03-13T13:18:01.282Z,3.10
2019-03-13T13:20:30.390Z,3.73
2019-03-13T13:22:58.892Z,4.00
2019-03-13T13:25:27.338Z,3.43
2019-03-13T13:27:55.850Z,4.57
2019-03-13T13:30:24.285Z,3.57
2019-03-13T13:32:52.797Z,3.00
2019-03-13T13:35:21.251Z,2.83
2019-03-13T13:37:49.725Z,2.07
2019-03-13T13:40:18.261Z,2.23
2019-03-13T13:42:46.751Z,2.97
2019-03-13T13:45:33.648Z,2.97
2019-03-13T13:48:02.212Z,2.53
2019-03-13T13:50:30.674Z,2.30
2019-03-13T13:52:59.086Z,2.57
2019-03-13T13:55:27.657Z,2.87
2019-03-13T13:57:56.105Z,2.30
2019-03-13T14:00:24.579Z,1.93
2019-03-13T14:02:53.016Z,2.77
2019-03-13T14:05:21.465Z,2.60
2019-03-13T14:07:49.902Z,2.63
2019-03-13T14:10:18.422Z,3.00
2019-03-13T14:12:46.842Z,3.23
2019-03-13T14:15:16.301Z,2.80
2019-03-13T14:17:44.760Z,1.93
2019-03-13T14:20:14.721Z,2.97
2019-03-13T14:22:44.044Z,3.53
2019-03-13T14:25:13.942Z,3.13
2019-03-13T14:27:42.494Z,2.10
2019-03-13T14:30:19.427Z,3.00
2019-03-13T14:32:47.866Z,2.80
2019-03-13T14:35:16.327Z,3.37
2019-03-13T14:37:44.826Z,2.83
2019-03-13T14:40:15.605Z,3.47
2019-03-13T14:42:44.016Z,4.23
2019-03-13T14:45:18.073Z,3.43
2019-03-13T14:47:46.595Z,2.57
2019-03-13T14:50:17.385Z,2.87
2019-03-13T14:52:45.908Z,2.17
2019-03-13T14:55:16.096Z,3.67
2019-03-13T14:57:44.629Z,3.27
2019-03-13T15:00:18.437Z,2.57
2019-03-13T15:02:46.900Z,2.40
2019-03-13T15:05:15.389Z,3.37
2019-03-13T15:07:43.909Z,2.27
2019-03-13T15:10:20.739Z,1.90
2019-03-13T15:12:49.474Z,2.23
2019-03-13T15:15:19.124Z,2.17
2019-03-13T15:17:47.710Z,2.60
2019-03-13T15:20:26.495Z,3.77
2019-03-13T15:22:54.979Z,2.57
2019-03-13T15:25:23.588Z,4.27
2019-03-13T15:27:52.103Z,3.97
2019-03-13T15:30:29.136Z,3.27
2019-03-13T15:32:57.563Z,2.83
2019-03-13T15:35:25.990Z,4.27
2019-03-13T15:37:54.450Z,3.27
2019-03-13T15:40:22.942Z,4.53
2019-03-13T15:42:51.405Z,4.10
2019-03-13T15:45:31.312Z,3.40
2019-03-13T15:47:59.760Z,4.17
2019-03-13T15:50:28.281Z,3.40
2019-03-13T15:52:56.792Z,2.40
2019-03-13T15:55:25.236Z,3.03
2019-03-13T15:57:53.693Z,3.27
2019-03-13T16:00:31.555Z,3.27
2019-03-13T16:03:00.086Z,3.03
2019-03-13T16:05:28.564Z,2.87
2019-03-13T16:07:57.025Z,2.53
2019-03-13T16:10:25.439Z,2.33
2019-03-13T16:12:55.513Z,3.47
2019-03-13T16:15:38.780Z,2.70
2019-03-13T16:18:07.301Z,2.20
2019-03-13T16:20:35.888Z,2.03
2019-03-13T16:23:04.481Z,3.10
2019-03-13T16:25:32.925Z,2.07
2019-03-13T16:28:01.509Z,3.10
2019-03-13T16:30:49.938Z,1.77
2019-03-13T16:33:18.353Z,2.03
2019-03-13T16:35:46.829Z,2.53
2019-03-13T16:38:15.325Z,2.50
2019-03-13T16:40:43.784Z,2.33
2019-03-13T16:43:12.309Z,2.10
2019-03-13T16:45:40.755Z,2.03
2019-03-13T16:48:09.244Z,2.57
2019-03-13T16:50:38.457Z,2.10
2019-03-13T16:53:06.949Z,1.87
2019-03-13T16:55:35.466Z,2.63
2019-03-13T16:58:03.925Z,2.40
2019-03-13T17:00:33.684Z,2.30
2019-03-13T17:03:02.259Z,1.77
2019-03-13T17:05:30.704Z,2.77
2019-03-13T17:07:59.122Z,2.40
2019-03-13T17:10:28.624Z,2.63
2019-03-13T17:12:57.215Z,2.10
2019-03-13T17:15:26.075Z,2.43
2019-03-13T17:17:54.841Z,2.40
2019-03-13T17:20:27.955Z,2.23
2019-03-13T17:22:56.480Z,3.13
2019-03-13T17:25:25.065Z,1.90
2019-03-13T17:27:53.516Z,2.20
2019-03-13T17:30:29.894Z,2.10
2019-03-13T17:32:59.377Z,1.53
2019-03-13T17:35:27.895Z,1.20
2019-03-13T17:37:56.368Z,1.50
2019-03-13T17:40:28.949Z,2.47
2019-03-13T17:42:57.400Z,2.97
2019-03-13T17:45:26.478Z,2.67
2019-03-13T17:47:55.056Z,2.07
2019-03-13T17:50:24.442Z,2.60
2019-03-13T17:52:53.135Z,2.40
2019-03-13T17:55:22.689Z,1.77
2019-03-13T17:57:51.217Z,2.90
2019-03-13T18:00:51.725Z,3.77
2019-03-13T18:03:21.024Z,3.03
2019-03-13T18:05:49.537Z,3.73
2019-03-13T18:08:17.965Z,3.83
2019-03-13T18:10:46.404Z,3.40
2019-03-13T18:13:15.038Z,3.27
2019-03-13T18:15:43.548Z,1.93
2019-03-13T18:18:11.985Z,2.50
2019-03-13T18:20:40.495Z,2.60
2019-03-13T18:23:09.063Z,4.07
2019-03-13T18:25:37.511Z,3.40
2019-03-13T18:28:06.085Z,2.10
2019-03-13T18:30:35.748Z,1.97
2019-03-13T18:33:04.544Z,2.33
2019-03-13T18:35:33.105Z,3.23
2019-03-13T18:38:01.553Z,2.83
2019-03-13T18:40:29.976Z,2.47
2019-03-13T18:42:58.475Z,3.37
2019-03-13T18:45:32.961Z,3.00
2019-03-13T18:48:01.457Z,3.00
2019-03-13T18:50:30.035Z,4.50
2019-03-13T18:52:58.571Z,4.73
2019-03-13T18:55:35.513Z,3.47
2019-03-13T18:58:04.395Z,3.70
2019-03-13T19:00:34.265Z,4.50
2019-03-13T19:03:02.962Z,2.70
2019-03-13T19:05:38.436Z,3.13
2019-03-13T19:08:07.220Z,3.67
2019-03-13T19:10:35.875Z,3.67
2019-03-13T19:13:04.769Z,2.70
2019-03-13T19:15:33.257Z,2.40
2019-03-13T19:18:01.716Z,2.90
2019-03-13T19:20:31.291Z,3.27
2019-03-13T19:22:59.959Z,2.53
2019-03-13T19:25:28.512Z,3.13
2019-03-13T19:27:57.303Z,1.90
2019-03-13T19:30:28.259Z,3.07
2019-03-13T19:32:56.841Z,1.93
2019-03-13T19:35:25.640Z,2.20
2019-03-13T19:37:55.329Z,2.67
2019-03-13T19:40:23.839Z,2.33
2019-03-13T19:42:52.288Z,1.80
2019-03-13T19:45:35.906Z,1.93
2019-03-13T19:48:04.462Z,3.27
2019-03-13T19:50:32.978Z,2.33
2019-03-13T19:53:01.506Z,2.47
2019-03-13T19:55:29.961Z,2.30
2019-03-13T19:57:58.493Z,3.10
2019-03-13T20:00:27.730Z,2.70
2019-03-13T20:03:07.562Z,2.87
2019-03-13T20:05:45.409Z,3.27
2019-03-13T20:08:06.374Z,1.73
2019-03-13T20:10:34.867Z,1.30
2019-03-13T20:13:03.474Z,3.50
2019-03-13T20:15:34.302Z,2.33
2019-03-13T20:18:02.764Z,2.30
2019-03-13T20:20:31.258Z,2.57
2019-03-13T20:23:14.421Z,2.20
2019-03-13T20:25:42.861Z,2.60
2019-03-13T20:28:11.297Z,2.87
2019-03-13T20:30:39.784Z,1.87
2019-03-13T20:33:08.236Z,2.77
2019-03-13T20:35:37.288Z,2.10
2019-03-13T20:38:06.048Z,2.53
2019-03-13T20:40:34.595Z,2.60
2019-03-13T20:43:03.154Z,3.57
2019-03-13T20:45:31.788Z,1.70
2019-03-13T20:48:00.305Z,2.77
2019-03-13T20:50:36.793Z,3.40
2019-03-13T20:52:59.022Z,3.30
2019-03-13T20:55:27.536Z,3.10
2019-03-13T20:57:55.960Z,2.03
2019-03-13T21:00:26.631Z,1.73
2019-03-13T21:02:56.096Z,2.70
2019-03-13T21:05:24.886Z,1.93
2019-03-13T21:07:53.875Z,3.67
2019-03-13T21:10:22.455Z,3.63
2019-03-13T21:12:51.032Z,2.53
2019-03-13T21:15:26.940Z,3.33
2019-03-13T21:17:55.706Z,4.00
2019-03-13T21:20:24.391Z,3.20
2019-03-13T21:22:52.915Z,2.93
2019-03-13T21:25:26.400Z,3.00
2019-03-13T21:27:54.898Z,2.20
2019-03-13T21:30:27.224Z,3.10
2019-03-13T21:32:55.951Z,2.90
2019-03-13T21:35:24.549Z,3.20
2019-03-13T21:37:53.113Z,2.43
2019-03-13T21:40:23.984Z,2.93
2019-03-13T21:42:54.428Z,4.00
2019-03-13T21:45:23.308Z,3.50
2019-03-13T21:47:52.136Z,3.27
2019-03-13T21:50:20.721Z,1.37
2019-03-13T21:52:49.358Z,3.00
2019-03-13T21:55:18.693Z,2.47
2019-03-13T21:57:47.209Z,3.60
2019-03-13T22:00:21.549Z,2.93
2019-03-13T22:02:50.545Z,3.37
2019-03-13T22:05:25.520Z,2.47
2019-03-13T22:07:49.553Z,1.97
2019-03-13T22:10:18.926Z,2.70
2019-03-13T22:12:47.489Z,3.27
2019-03-13T22:15:18.451Z,2.90
2019-03-13T22:17:46.900Z,2.17
2019-03-13T22:20:18.618Z,2.33
2019-03-13T22:22:47.421Z,2.57
2019-03-13T22:25:17.084Z,3.60
2019-03-13T22:27:45.548Z,3.17
2019-03-13T22:30:19.224Z,3.87
2019-03-13T22:32:47.877Z,1.97
2019-03-13T22:35:16.444Z,2.20
2019-03-13T22:37:44.967Z,3.97
2019-03-13T22:40:17.071Z,3.10
2019-03-13T22:42:45.585Z,2.77
2019-03-13T22:45:22.867Z,4.27
2019-03-13T22:47:51.402Z,3.27
2019-03-13T22:50:24.221Z,4.20
2019-03-13T22:52:52.984Z,3.80
2019-03-13T22:55:21.485Z,4.30
2019-03-13T22:57:50.092Z,7.37
2019-03-13T23:00:41.521Z,4.97
2019-03-13T23:03:10.316Z,3.30
2019-03-13T23:05:38.741Z,3.10
2019-03-13T23:08:07.231Z,4.00
2019-03-13T23:10:36.424Z,3.80
2019-03-13T23:13:04.943Z,3.40
2019-03-13T23:15:33.368Z,2.70
2019-03-13T23:18:01.830Z,5.40
2019-03-13T23:20:30.281Z,3.80
2019-03-13T23:22:58.745Z,3.90
2019-03-13T23:25:27.270Z,2.40
2019-03-13T23:27:55.682Z,3.77
2019-03-13T23:30:24.289Z,4.10
2019-03-13T23:32:52.718Z,2.70
2019-03-13T23:35:21.140Z,3.53
2019-03-13T23:37:49.589Z,3.43
2019-03-13T23:40:18.029Z,2.23
2019-03-13T23:42:46.459Z,2.30
2019-03-13T23:45:15.048Z,2.37
2019-03-13T23:47:43.462Z,2.30
2019-03-13T23:50:13.366Z,4.57
2019-03-13T23:52:41.794Z,1.97
2019-03-13T23:55:10.685Z,3.10
2019-03-13T23:57:39.104Z,3.87
